sensor_id;sensor_type;location;lat;lon;timestamp;P1;durP1;ratioP1;P2;durP2;ratioP2
15297;SDS011;7750;48.796;9.026;2024-01-10T00:05:55;29.07;;;16.50;;
15297;SDS011;7750;48.796;9.026;2024-01-10T09:40:07;38.63;;;23.40;;
15297;SDS011;7750;48.796;9.026;2024-01-10T09:45:09;40.00;;;24.93;;
15297;SDS011;7750;48.796;9.026;2024-01-10T09:50:12;40.00;;;25.43;;
15297;SDS011;7750;48.796;9.026;2024-01-10T10:21:13;33.53;;;21.40;;
15297;SDS011;7750;48.796;9.026;2024-01-10T10:36:37;30.83;;;19.50;;
15297;SDS011;7750;48.796;9.026;2024-01-10T11:35:22;33.13;;;22.37;;
15297;SDS011;7750;48.796;9.026;2024-01-10T11:40:45;36.00;;;24.70;;
15297;SDS011;7750;48.796;9.026;2024-01-10T12:01:41;37.10;;;21.43;;
15297;SDS011;7750;48.796;9.026;2024-01-10T12:06:42;32.63;;;22.47;;
15297;SDS011;7750;48.796;9.026;2024-01-10T12:11:45;29.07;;;19.83;;
15297;SDS011;7750;48.796;9.026;2024-01-10T12:16:46;31.77;;;21.23;;
15297;SDS011;7750;48.796;9.026;2024-01-10T12:21:48;32.53;;;22.43;;
15297;SDS011;7750;48.796;9.026;2024-01-10T12:26:49;29.67;;;20.77;;
15297;SDS011;7750;48.796;9.026;2024-01-10T12:31:51;31.07;;;20.50;;
15297;SDS011;7750;48.796;9.026;2024-01-10T12:36:54;32.40;;;21.67;;
15297;SDS011;7750;48.796;9.026;2024-01-10T12:41:57;32.40;;;22.70;;
15297;SDS011;7750;48.796;9.026;2024-01-10T12:46:58;34.37;;;21.90;;
15297;SDS011;7750;48.796;9.026;2024-01-10T12:52:01;33.73;;;21.73;;
15297;SDS011;7750;48.796;9.026;2024-01-10T13:22:58;31.30;;;20.93;;
15297;SDS011;7750;48.796;9.026;2024-01-10T13:33:23;38.57;;;22.67;;
15297;SDS011;7750;48.796;9.026;2024-01-10T14:15:21;32.70;;;21.27;;
15297;SDS011;7750;48.796;9.026;2024-01-10T14:20:22;34.03;;;21.83;;
15297;SDS011;7750;48.796;9.026;2024-01-10T14:25:24;30.23;;;21.30;;
15297;SDS011;7750;48.796;9.026;2024-01-10T14:30:32;33.60;;;22.20;;
15297;SDS011;7750;48.796;9.026;2024-01-10T14:35:40;34.10;;;21.93;;
15297;SDS011;7750;48.796;9.026;2024-01-10T14:45:51;34.57;;;24.50;;
15297;SDS011;7750;48.796;9.026;2024-01-10T14:50:53;31.53;;;21.50;;
15297;SDS011;7750;48.796;9.026;2024-01-10T15:11:24;37.67;;;23.40;;
15297;SDS011;7750;48.796;9.026;2024-01-10T15:26:46;35.97;;;22.67;;
15297;SDS011;7750;48.796;9.026;2024-01-10T15:31:47;35.83;;;23.57;;
15297;SDS011;7750;48.796;9.026;2024-01-10T15:36:56;37.83;;;22.80;;
15297;SDS011;7750;48.796;9.026;2024-01-10T15:41:58;37.67;;;23.27;;
15297;SDS011;7750;48.796;9.026;2024-01-10T15:46:59;39.07;;;25.03;;
15297;SDS011;7750;48.796;9.026;2024-01-10T15:52:00;37.07;;;26.10;;
15297;SDS011;7750;48.796;9.026;2024-01-10T16:02:07;37.37;;;26.13;;
15297;SDS011;7750;48.796;9.026;2024-01-10T16:07:09;46.47;;;26.67;;
15297;SDS011;7750;48.796;9.026;2024-01-10T16:12:10;38.00;;;27.33;;
15297;SDS011;7750;48.796;9.026;2024-01-10T16:27:33;38.00;;;25.07;;
15297;SDS011;7750;48.796;9.026;2024-01-10T16:32:34;41.53;;;25.40;;
15297;SDS011;7750;48.796;9.026;2024-01-10T16:37:35;39.00;;;24.80;;
15297;SDS011;7750;48.796;9.026;2024-01-10T16:42:35;39.27;;;25.20;;
15297;SDS011;7750;48.796;9.026;2024-01-10T16:47:36;35.60;;;22.97;;
15297;SDS011;7750;48.796;9.026;2024-01-10T16:52:37;45.30;;;28.47;;
15297;SDS011;7750;48.796;9.026;2024-01-10T16:57:38;45.83;;;26.97;;
15297;SDS011;7750;48.796;9.026;2024-01-10T17:02:39;38.53;;;25.27;;
15297;SDS011;7750;48.796;9.026;2024-01-10T17:07:41;36.67;;;24.00;;
15297;SDS011;7750;48.796;9.026;2024-01-10T17:12:41;39.97;;;25.77;;
15297;SDS011;7750;48.796;9.026;2024-01-10T17:17:42;43.20;;;25.37;;
15297;SDS011;7750;48.796;9.026;2024-01-10T17:22:47;41.53;;;27.00;;
15297;SDS011;7750;48.796;9.026;2024-01-10T17:27:48;39.70;;;25.60;;
15297;SDS011;7750;48.796;9.026;2024-01-10T17:32:49;38.77;;;24.37;;
15297;SDS011;7750;48.796;9.026;2024-01-10T17:37:50;42.87;;;25.70;;
15297;SDS011;7750;48.796;9.026;2024-01-10T17:42:51;42.10;;;25.80;;
15297;SDS011;7750;48.796;9.026;2024-01-10T17:47:52;41.47;;;25.80;;
15297;SDS011;7750;48.796;9.026;2024-01-10T17:52:53;39.03;;;25.13;;
15297;SDS011;7750;48.796;9.026;2024-01-10T17:57:54;41.60;;;25.10;;
15297;SDS011;7750;48.796;9.026;2024-01-10T18:02:58;40.90;;;25.47;;
15297;SDS011;7750;48.796;9.026;2024-01-10T18:07:58;40.60;;;23.60;;
15297;SDS011;7750;48.796;9.026;2024-01-10T18:12:59;44.40;;;26.17;;
15297;SDS011;7750;48.796;9.026;2024-01-10T18:18:02;37.57;;;23.97;;
15297;SDS011;7750;48.796;9.026;2024-01-10T18:23:03;38.17;;;23.50;;
15297;SDS011;7750;48.796;9.026;2024-01-10T18:28:04;42.80;;;25.87;;
15297;SDS011;7750;48.796;9.026;2024-01-10T18:33:05;39.63;;;25.60;;
15297;SDS011;7750;48.796;9.026;2024-01-10T19:40:16;41.57;;;25.30;;
15297;SDS011;7750;48.796;9.026;2024-01-10T19:45:20;39.63;;;23.93;;
15297;SDS011;7750;48.796;9.026;2024-01-10T20:32:36;41.67;;;25.50;;
15297;SDS011;7750;48.796;9.026;2024-01-10T20:47:58;41.50;;;26.40;;
15297;SDS011;7750;48.796;9.026;2024-01-10T20:52:59;44.50;;;27.10;;
15297;SDS011;7750;48.796;9.026;2024-01-10T21:18:36;40.43;;;26.27;;
15297;SDS011;7750;48.796;9.026;2024-01-10T21:23:37;47.70;;;29.37;;
15297;SDS011;7750;48.796;9.026;2024-01-10T21:33:48;45.27;;;27.37;;
15297;SDS011;7750;48.796;9.026;2024-01-10T21:38:50;45.17;;;27.20;;
15297;SDS011;7750;48.796;9.026;2024-01-10T21:43:51;43.90;;;27.07;;
15297;SDS011;7750;48.796;9.026;2024-01-10T21:48:56;48.87;;;28.93;;
15297;SDS011;7750;48.796;9.026;2024-01-10T21:54:07;50.30;;;30.30;;
15297;SDS011;7750;48.796;9.026;2024-01-10T22:36:36;45.87;;;25.10;;
15297;SDS011;7750;48.796;9.026;2024-01-10T22:41:37;47.20;;;25.43;;
15297;SDS011;7750;48.796;9.026;2024-01-10T22:51:44;48.23;;;27.30;;
15297;SDS011;7750;48.796;9.026;2024-01-10T23:07:21;43.07;;;26.57;;
